sensor_id;sensor_type;location;lat;lon;timestamp;P1;durP1;ratioP1;P2;durP2;ratioP2
75993;SDS011;64680;53.800;9.988;2023-05-15T00:00:42;8.80;;;7.90;;
75993;SDS011;64680;53.800;9.988;2023-05-15T00:03:08;8.88;;;7.97;;
75993;SDS011;64680;53.800;9.988;2023-05-15T00:05:34;9.93;;;8.70;;
75993;SDS011;64680;53.800;9.988;2023-05-15T00:08:00;9.82;;;8.30;;
75993;SDS011;64680;53.800;9.988;2023-05-15T00:10:25;9.85;;;8.88;;
75993;SDS011;64680;53.800;9.988;2023-05-15T00:12:51;11.20;;;9.48;;
75993;SDS011;64680;53.800;9.988;2023-05-15T00:15:16;9.82;;;8.38;;
75993;SDS011;64680;53.800;9.988;2023-05-15T00:17:42;9.63;;;8.65;;
75993;SDS011;64680;53.800;9.988;2023-05-15T00:20:08;9.73;;;8.73;;
75993;SDS011;64680;53.800;9.988;2023-05-15T00:22:34;10.23;;;8.88;;
75993;SDS011;64680;53.800;9.988;2023-05-15T00:24:59;10.63;;;9.20;;
75993;SDS011;64680;53.800;9.988;2023-05-15T00:27:25;9.68;;;8.30;;
75993;SDS011;64680;53.800;9.988;2023-05-15T00:29:51;10.48;;;9.10;;
75993;SDS011;64680;53.800;9.988;2023-05-15T00:32:17;9.77;;;8.52;;
75993;SDS011;64680;53.800;9.988;2023-05-15T00:34:43;9.85;;;8.35;;
75993;SDS011;64680;53.800;9.988;2023-05-15T00:37:08;10.05;;;8.88;;
75993;SDS011;64680;53.800;9.988;2023-05-15T00:39:34;10.10;;;9.02;;
75993;SDS011;64680;53.800;9.988;2023-05-15T00:42:00;10.30;;;8.40;;
75993;SDS011;64680;53.800;9.988;2023-05-15T00:44:29;11.10;;;8.82;;
75993;SDS011;64680;53.800;9.988;2023-05-15T00:49:23;9.38;;;8.48;;
75993;SDS011;64680;53.800;9.988;2023-05-15T00:51:51;10.77;;;9.65;;
75993;SDS011;64680;53.800;9.988;2023-05-15T00:54:17;11.07;;;9.93;;
75993;SDS011;64680;53.800;9.988;2023-05-15T00:56:44;12.35;;;9.80;;
75993;SDS011;64680;53.800;9.988;2023-05-15T00:59:11;13.30;;;8.25;;
75993;SDS011;64680;53.800;9.988;2023-05-15T01:01:37;11.50;;;9.82;;
75993;SDS011;64680;53.800;9.988;2023-05-15T01:04:03;11.27;;;8.32;;
75993;SDS011;64680;53.800;9.988;2023-05-15T01:06:29;12.10;;;10.00;;
75993;SDS011;64680;53.800;9.988;2023-05-15T01:08:56;9.93;;;8.65;;
75993;SDS011;64680;53.800;9.988;2023-05-15T01:11:26;11.80;;;9.35;;
75993;SDS011;64680;53.800;9.988;2023-05-15T01:14:01;14.02;;;9.93;;
75993;SDS011;64680;53.800;9.988;2023-05-15T01:16:29;11.48;;;9.30;;
75993;SDS011;64680;53.800;9.988;2023-05-15T01:18:55;11.73;;;8.20;;
75993;SDS011;64680;53.800;9.988;2023-05-15T01:24:10;13.13;;;9.68;;
75993;SDS011;64680;53.800;9.988;2023-05-15T01:26:54;11.02;;;9.90;;
75993;SDS011;64680;53.800;9.988;2023-05-15T01:35:13;11.27;;;9.63;;
75993;SDS011;64680;53.800;9.988;2023-05-15T01:37:47;14.40;;;10.40;;
75993;SDS011;64680;53.800;9.988;2023-05-15T01:40:18;12.95;;;10.02;;
75993;SDS011;64680;53.800;9.988;2023-05-15T01:42:50;12.65;;;9.98;;
75993;SDS011;64680;53.800;9.988;2023-05-15T01:45:20;12.65;;;9.85;;
75993;SDS011;64680;53.800;9.988;2023-05-15T01:47:48;11.10;;;9.10;;
75993;SDS011;64680;53.800;9.988;2023-05-15T01:50:17;12.18;;;10.23;;
75993;SDS011;64680;53.800;9.988;2023-05-15T01:52:48;13.70;;;10.25;;
75993;SDS011;64680;53.800;9.988;2023-05-15T01:55:16;10.63;;;9.50;;
75993;SDS011;64680;53.800;9.988;2023-05-15T01:57:44;13.48;;;9.98;;
75993;SDS011;64680;53.800;9.988;2023-05-15T02:00:12;14.02;;;10.35;;
75993;SDS011;64680;53.800;9.988;2023-05-15T02:02:39;13.75;;;10.50;;
75993;SDS011;64680;53.800;9.988;2023-05-15T02:05:06;12.32;;;9.90;;
75993;SDS011;64680;53.800;9.988;2023-05-15T02:07:32;11.80;;;9.90;;
75993;SDS011;64680;53.800;9.988;2023-05-15T02:09:58;11.30;;;9.57;;
75993;SDS011;64680;53.800;9.988;2023-05-15T02:12:25;12.75;;;9.85;;
75993;SDS011;64680;53.800;9.988;2023-05-15T02:14:52;11.88;;;9.23;;
75993;SDS011;64680;53.800;9.988;2023-05-15T02:17:19;11.98;;;10.02;;
75993;SDS011;64680;53.800;9.988;2023-05-15T02:19:46;12.60;;;9.77;;
75993;SDS011;64680;53.800;9.988;2023-05-15T02:22:11;12.00;;;10.30;;
75993;SDS011;64680;53.800;9.988;2023-05-15T02:24:37;11.50;;;10.18;;
75993;SDS011;64680;53.800;9.988;2023-05-15T02:30:02;9.43;;;8.18;;
75993;SDS011;64680;53.800;9.988;2023-05-15T02:38:14;9.80;;;7.60;;
75993;SDS011;64680;53.800;9.988;2023-05-15T02:40:41;10.70;;;9.23;;
75993;SDS011;64680;53.800;9.988;2023-05-15T02:45:35;10.75;;;9.35;;
75993;SDS011;64680;53.800;9.988;2023-05-15T02:48:01;12.38;;;9.10;;
75993;SDS011;64680;53.800;9.988;2023-05-15T02:50:27;12.98;;;10.90;;
75993;SDS011;64680;53.800;9.988;2023-05-15T02:53:03;13.40;;;10.82;;
75993;SDS011;64680;53.800;9.988;2023-05-15T02:55:29;12.43;;;9.90;;
75993;SDS011;64680;53.800;9.988;2023-05-15T02:57:55;14.35;;;10.43;;
75993;SDS011;64680;53.800;9.988;2023-05-15T03:00:21;13.43;;;10.88;;
75993;SDS011;64680;53.800;9.988;2023-05-15T03:02:47;15.35;;;11.70;;
75993;SDS011;64680;53.800;9.988;2023-05-15T03:05:13;14.02;;;11.45;;
75993;SDS011;64680;53.800;9.988;2023-05-15T03:07:38;12.40;;;10.25;;
75993;SDS011;64680;53.800;9.988;2023-05-15T03:10:05;14.55;;;10.80;;
75993;SDS011;64680;53.800;9.988;2023-05-15T03:12:31;15.15;;;12.43;;
75993;SDS011;64680;53.800;9.988;2023-05-15T03:14:57;13.13;;;10.98;;
75993;SDS011;64680;53.800;9.988;2023-05-15T03:17:22;11.15;;;9.88;;
75993;SDS011;64680;53.800;9.988;2023-05-15T03:19:48;11.23;;;9.85;;
75993;SDS011;64680;53.800;9.988;2023-05-15T03:22:13;11.25;;;9.38;;
75993;SDS011;64680;53.800;9.988;2023-05-15T03:24:39;10.88;;;9.48;;
75993;SDS011;64680;53.800;9.988;2023-05-15T03:27:05;11.90;;;10.60;;
75993;SDS011;64680;53.800;9.988;2023-05-15T03:29:30;12.88;;;10.45;;
75993;SDS011;64680;53.800;9.988;2023-05-15T03:31:56;14.02;;;10.48;;
75993;SDS011;64680;53.800;9.988;2023-05-15T03:34:21;11.60;;;9.95;;
75993;SDS011;64680;53.800;9.988;2023-05-15T03:36:47;13.23;;;10.85;;
75993;SDS011;64680;53.800;9.988;2023-05-15T03:39:12;12.35;;;10.90;;
75993;SDS011;64680;53.800;9.988;2023-05-15T03:41:38;15.98;;;12.02;;
75993;SDS011;64680;53.800;9.988;2023-05-15T03:44:03;15.85;;;11.30;;
75993;SDS011;64680;53.800;9.988;2023-05-15T03:46:30;13.90;;;11.55;;
75993;SDS011;64680;53.800;9.988;2023-05-15T03:48:55;13.27;;;11.60;;
75993;SDS011;64680;53.800;9.988;2023-05-15T03:51:21;11.90;;;10.00;;
75993;SDS011;64680;53.800;9.988;2023-05-15T03:53:47;10.80;;;9.65;;
75993;SDS011;64680;53.800;9.988;2023-05-15T03:56:13;13.48;;;10.25;;
75993;SDS011;64680;53.800;9.988;2023-05-15T03:58:39;12.55;;;10.27;;
75993;SDS011;64680;53.800;9.988;2023-05-15T04:01:05;14.02;;;10.82;;
75993;SDS011;64680;53.800;9.988;2023-05-15T04:03:31;11.30;;;9.82;;
75993;SDS011;64680;53.800;9.988;2023-05-15T04:05:57;13.20;;;10.38;;
75993;SDS011;64680;53.800;9.988;2023-05-15T04:08:23;15.10;;;11.63;;
75993;SDS011;64680;53.800;9.988;2023-05-15T04:10:48;13.88;;;11.00;;
75993;SDS011;64680;53.800;9.988;2023-05-15T04:13:14;13.15;;;11.60;;
75993;SDS011;64680;53.800;9.988;2023-05-15T04:15:40;13.57;;;10.85;;
75993;SDS011;64680;53.800;9.988;2023-05-15T04:18:05;14.52;;;11.07;;
75993;SDS011;64680;53.800;9.988;2023-05-15T04:20:31;12.77;;;11.45;;
75993;SDS011;64680;53.800;9.988;2023-05-15T04:22:57;13.00;;;10.23;;
75993;SDS011;64680;53.800;9.988;2023-05-15T04:25:23;13.95;;;11.38;;
75993;SDS011;64680;53.800;9.988;2023-05-15T04:27:49;14.80;;;11.75;;
75993;SDS011;64680;53.800;9.988;2023-05-15T04:30:15;13.57;;;11.30;;
75993;SDS011;64680;53.800;9.988;2023-05-15T04:32:40;13.93;;;9.98;;
75993;SDS011;64680;53.800;9.988;2023-05-15T04:35:07;15.85;;;11.02;;
75993;SDS011;64680;53.800;9.988;2023-05-15T04:37:36;13.77;;;11.70;;
75993;SDS011;64680;53.800;9.988;2023-05-15T04:40:02;12.70;;;10.90;;
75993;SDS011;64680;53.800;9.988;2023-05-15T04:42:28;11.20;;;9.93;;
75993;SDS011;64680;53.800;9.988;2023-05-15T04:44:54;12.13;;;10.10;;
75993;SDS011;64680;53.800;9.988;2023-05-15T04:47:19;11.75;;;9.93;;
75993;SDS011;64680;53.800;9.988;2023-05-15T04:49:45;13.10;;;10.60;;
75993;SDS011;64680;53.800;9.988;2023-05-15T04:52:14;11.55;;;9.48;;
75993;SDS011;64680;53.800;9.988;2023-05-15T04:54:40;11.38;;;9.88;;
75993;SDS011;64680;53.800;9.988;2023-05-15T04:57:06;12.57;;;9.05;;
75993;SDS011;64680;53.800;9.988;2023-05-15T04:59:32;9.88;;;8.98;;
75993;SDS011;64680;53.800;9.988;2023-05-15T05:01:58;11.57;;;9.02;;
75993;SDS011;64680;53.800;9.988;2023-05-15T05:04:26;9.15;;;8.25;;
75993;SDS011;64680;53.800;9.988;2023-05-15T05:06:52;8.60;;;7.70;;
75993;SDS011;64680;53.800;9.988;2023-05-15T05:09:18;9.13;;;8.23;;
75993;SDS011;64680;53.800;9.988;2023-05-15T05:11:44;9.88;;;8.77;;
75993;SDS011;64680;53.800;9.988;2023-05-15T05:14:11;8.57;;;7.43;;
75993;SDS011;64680;53.800;9.988;2023-05-15T05:16:40;8.98;;;7.90;;
75993;SDS011;64680;53.800;9.988;2023-05-15T05:19:08;8.65;;;7.43;;
75993;SDS011;64680;53.800;9.988;2023-05-15T05:21:34;7.93;;;7.00;;
75993;SDS011;64680;53.800;9.988;2023-05-15T05:24:00;9.35;;;7.53;;
75993;SDS011;64680;53.800;9.988;2023-05-15T05:26:25;9.23;;;7.60;;
75993;SDS011;64680;53.800;9.988;2023-05-15T05:28:51;8.18;;;7.20;;
75993;SDS011;64680;53.800;9.988;2023-05-15T05:31:17;8.18;;;7.07;;
75993;SDS011;64680;53.800;9.988;2023-05-15T05:33:44;9.43;;;7.85;;
75993;SDS011;64680;53.800;9.988;2023-05-15T05:36:10;8.25;;;7.25;;
75993;SDS011;64680;53.800;9.988;2023-05-15T05:38:36;8.43;;;6.65;;
75993;SDS011;64680;53.800;9.988;2023-05-15T05:41:02;8.45;;;6.82;;
75993;SDS011;64680;53.800;9.988;2023-05-15T05:43:28;8.85;;;6.68;;
75993;SDS011;64680;53.800;9.988;2023-05-15T05:45:55;8.75;;;6.65;;
75993;SDS011;64680;53.800;9.988;2023-05-15T05:48:20;7.65;;;6.82;;
75993;SDS011;64680;53.800;9.988;2023-05-15T05:50:46;8.63;;;6.18;;
75993;SDS011;64680;53.800;9.988;2023-05-15T05:53:12;11.73;;;7.53;;
75993;SDS011;64680;53.800;9.988;2023-05-15T05:55:37;11.88;;;7.90;;
75993;SDS011;64680;53.800;9.988;2023-05-15T05:58:03;11.90;;;8.68;;
75993;SDS011;64680;53.800;9.988;2023-05-15T06:00:28;8.27;;;7.45;;
75993;SDS011;64680;53.800;9.988;2023-05-15T06:02:58;10.95;;;8.85;;
75993;SDS011;64680;53.800;9.988;2023-05-15T06:05:25;9.95;;;8.65;;
75993;SDS011;64680;53.800;9.988;2023-05-15T06:07:51;11.23;;;8.45;;
75993;SDS011;64680;53.800;9.988;2023-05-15T06:10:20;11.55;;;7.88;;
75993;SDS011;64680;53.800;9.988;2023-05-15T06:12:46;12.10;;;8.18;;
75993;SDS011;64680;53.800;9.988;2023-05-15T06:15:12;9.93;;;8.40;;
75993;SDS011;64680;53.800;9.988;2023-05-15T06:17:38;9.32;;;6.80;;
75993;SDS011;64680;53.800;9.988;2023-05-15T06:20:04;9.73;;;8.05;;
75993;SDS011;64680;53.800;9.988;2023-05-15T06:22:33;8.20;;;7.40;;
75993;SDS011;64680;53.800;9.988;2023-05-15T06:25:00;8.27;;;6.60;;
75993;SDS011;64680;53.800;9.988;2023-05-15T06:27:28;7.72;;;6.50;;
75993;SDS011;64680;53.800;9.988;2023-05-15T06:29:53;7.10;;;6.40;;
75993;SDS011;64680;53.800;9.988;2023-05-15T06:32:19;6.90;;;6.13;;
75993;SDS011;64680;53.800;9.988;2023-05-15T06:34:45;6.55;;;5.50;;
75993;SDS011;64680;53.800;9.988;2023-05-15T06:37:10;5.57;;;4.47;;
75993;SDS011;64680;53.800;9.988;2023-05-15T06:39:36;5.93;;;5.05;;
75993;SDS011;64680;53.800;9.988;2023-05-15T06:42:02;6.70;;;5.13;;
75993;SDS011;64680;53.800;9.988;2023-05-15T06:44:28;7.55;;;5.40;;
75993;SDS011;64680;53.800;9.988;2023-05-15T06:49:20;5.22;;;4.65;;
75993;SDS011;64680;53.800;9.988;2023-05-15T06:51:46;6.53;;;5.15;;
75993;SDS011;64680;53.800;9.988;2023-05-15T06:54:12;5.65;;;5.05;;
75993;SDS011;64680;53.800;9.988;2023-05-15T06:56:38;5.43;;;4.57;;
75993;SDS011;64680;53.800;9.988;2023-05-15T06:59:03;5.15;;;4.50;;
75993;SDS011;64680;53.800;9.988;2023-05-15T07:01:30;4.80;;;4.30;;
75993;SDS011;64680;53.800;9.988;2023-05-15T07:03:56;5.15;;;3.92;;
75993;SDS011;64680;53.800;9.988;2023-05-15T07:06:21;4.38;;;3.97;;
75993;SDS011;64680;53.800;9.988;2023-05-15T07:08:47;4.47;;;3.83;;
75993;SDS011;64680;53.800;9.988;2023-05-15T07:11:13;4.53;;;3.35;;
75993;SDS011;64680;53.800;9.988;2023-05-15T07:13:38;4.97;;;3.35;;
75993;SDS011;64680;53.800;9.988;2023-05-15T07:16:04;4.00;;;3.60;;
75993;SDS011;64680;53.800;9.988;2023-05-15T07:18:30;4.18;;;3.78;;
75993;SDS011;64680;53.800;9.988;2023-05-15T07:20:55;4.28;;;3.88;;
75993;SDS011;64680;53.800;9.988;2023-05-15T07:23:22;4.72;;;3.70;;
75993;SDS011;64680;53.800;9.988;2023-05-15T07:25:47;5.22;;;4.72;;
75993;SDS011;64680;53.800;9.988;2023-05-15T07:28:13;5.82;;;4.03;;
75993;SDS011;64680;53.800;9.988;2023-05-15T07:30:39;7.13;;;4.70;;
75993;SDS011;64680;53.800;9.988;2023-05-15T07:33:05;4.57;;;3.50;;
75993;SDS011;64680;53.800;9.988;2023-05-15T07:35:30;5.65;;;3.00;;
75993;SDS011;64680;53.800;9.988;2023-05-15T07:37:56;5.45;;;3.38;;
75993;SDS011;64680;53.800;9.988;2023-05-15T07:40:22;3.50;;;3.20;;
75993;SDS011;64680;53.800;9.988;2023-05-15T07:42:47;4.22;;;2.53;;
75993;SDS011;64680;53.800;9.988;2023-05-15T07:45:13;4.22;;;2.85;;
75993;SDS011;64680;53.800;9.988;2023-05-15T07:47:43;3.92;;;2.65;;
75993;SDS011;64680;53.800;9.988;2023-05-15T07:50:10;3.55;;;3.10;;
75993;SDS011;64680;53.800;9.988;2023-05-15T07:52:36;3.65;;;2.70;;
75993;SDS011;64680;53.800;9.988;2023-05-15T07:55:01;3.40;;;3.10;;
75993;SDS011;64680;53.800;9.988;2023-05-15T07:57:28;3.03;;;2.83;;
75993;SDS011;64680;53.800;9.988;2023-05-15T07:59:53;3.28;;;2.92;;
75993;SDS011;64680;53.800;9.988;2023-05-15T08:02:20;3.90;;;3.53;;
75993;SDS011;64680;53.800;9.988;2023-05-15T08:04:45;5.22;;;3.03;;
75993;SDS011;64680;53.800;9.988;2023-05-15T08:07:12;7.22;;;3.03;;
75993;SDS011;64680;53.800;9.988;2023-05-15T08:09:38;4.68;;;2.70;;
75993;SDS011;64680;53.800;9.988;2023-05-15T08:12:19;3.80;;;2.85;;
75993;SDS011;64680;53.800;9.988;2023-05-15T08:14:48;3.38;;;2.70;;
75993;SDS011;64680;53.800;9.988;2023-05-15T08:17:16;3.90;;;2.70;;
75993;SDS011;64680;53.800;9.988;2023-05-15T08:19:42;3.90;;;2.80;;
75993;SDS011;64680;53.800;9.988;2023-05-15T08:22:07;3.03;;;2.47;;
75993;SDS011;64680;53.800;9.988;2023-05-15T08:24:33;3.33;;;2.42;;
75993;SDS011;64680;53.800;9.988;2023-05-15T08:26:59;3.90;;;3.08;;
75993;SDS011;64680;53.800;9.988;2023-05-15T08:29:24;3.47;;;2.55;;
75993;SDS011;64680;53.800;9.988;2023-05-15T08:31:50;3.33;;;3.03;;
75993;SDS011;64680;53.800;9.988;2023-05-15T08:34:16;3.00;;;2.70;;
75993;SDS011;64680;53.800;9.988;2023-05-15T08:36:45;3.58;;;3.10;;
75993;SDS011;64680;53.800;9.988;2023-05-15T08:39:10;2.85;;;2.53;;
75993;SDS011;64680;53.800;9.988;2023-05-15T08:41:39;3.88;;;2.83;;
75993;SDS011;64680;53.800;9.988;2023-05-15T08:44:10;5.40;;;3.10;;
75993;SDS011;64680;53.800;9.988;2023-05-15T08:46:37;3.45;;;3.03;;
75993;SDS011;64680;53.800;9.988;2023-05-15T08:49:05;3.45;;;3.15;;
75993;SDS011;64680;53.800;9.988;2023-05-15T08:51:48;3.63;;;2.85;;
75993;SDS011;64680;53.800;9.988;2023-05-15T08:54:14;3.97;;;2.90;;
75993;SDS011;64680;53.800;9.988;2023-05-15T08:56:40;3.42;;;2.95;;
75993;SDS011;64680;53.800;9.988;2023-05-15T08:59:07;4.78;;;2.90;;
75993;SDS011;64680;53.800;9.988;2023-05-15T09:01:32;4.43;;;3.50;;
75993;SDS011;64680;53.800;9.988;2023-05-15T09:03:58;4.38;;;3.25;;
75993;SDS011;64680;53.800;9.988;2023-05-15T09:06:24;3.90;;;2.83;;
75993;SDS011;64680;53.800;9.988;2023-05-15T09:08:50;4.82;;;2.92;;
75993;SDS011;64680;53.800;9.988;2023-05-15T09:11:21;4.60;;;2.30;;
75993;SDS011;64680;53.800;9.988;2023-05-15T09:13:48;3.47;;;3.17;;
75993;SDS011;64680;53.800;9.988;2023-05-15T09:16:14;3.90;;;3.30;;
75993;SDS011;64680;53.800;9.988;2023-05-15T09:18:39;3.47;;;3.03;;
75993;SDS011;64680;53.800;9.988;2023-05-15T09:21:25;4.78;;;2.70;;
75993;SDS011;64680;53.800;9.988;2023-05-15T09:24:14;5.85;;;2.38;;
75993;SDS011;64680;53.800;9.988;2023-05-15T09:27:08;3.95;;;2.60;;
75993;SDS011;64680;53.800;9.988;2023-05-15T09:29:35;4.35;;;2.63;;
75993;SDS011;64680;53.800;9.988;2023-05-15T09:32:05;6.13;;;3.30;;
75993;SDS011;64680;53.800;9.988;2023-05-15T09:34:33;3.28;;;2.78;;
75993;SDS011;64680;53.800;9.988;2023-05-15T09:37:01;3.10;;;2.80;;
75993;SDS011;64680;53.800;9.988;2023-05-15T09:39:28;4.75;;;3.25;;
75993;SDS011;64680;53.800;9.988;2023-05-15T09:41:53;3.38;;;2.80;;
75993;SDS011;64680;53.800;9.988;2023-05-15T09:44:30;3.63;;;2.60;;
75993;SDS011;64680;53.800;9.988;2023-05-15T09:46:57;4.00;;;3.13;;
75993;SDS011;64680;53.800;9.988;2023-05-15T09:49:23;2.67;;;2.45;;
75993;SDS011;64680;53.800;9.988;2023-05-15T09:51:48;3.53;;;2.97;;
75993;SDS011;64680;53.800;9.988;2023-05-15T09:54:15;2.58;;;2.00;;
75993;SDS011;64680;53.800;9.988;2023-05-15T09:56:45;4.20;;;3.10;;
75993;SDS011;64680;53.800;9.988;2023-05-15T09:59:12;3.00;;;2.70;;
75993;SDS011;64680;53.800;9.988;2023-05-15T10:01:43;4.22;;;2.88;;
75993;SDS011;64680;53.800;9.988;2023-05-15T10:04:10;4.03;;;2.70;;
75993;SDS011;64680;53.800;9.988;2023-05-15T10:06:37;3.70;;;2.80;;
75993;SDS011;64680;53.800;9.988;2023-05-15T10:09:13;3.92;;;2.88;;
75993;SDS011;64680;53.800;9.988;2023-05-15T10:11:40;3.47;;;3.17;;
75993;SDS011;64680;53.800;9.988;2023-05-15T10:14:10;3.60;;;2.50;;
75993;SDS011;64680;53.800;9.988;2023-05-15T10:16:37;2.78;;;2.50;;
75993;SDS011;64680;53.800;9.988;2023-05-15T10:19:09;4.88;;;2.50;;
75993;SDS011;64680;53.800;9.988;2023-05-15T10:21:36;3.00;;;2.70;;
75993;SDS011;64680;53.800;9.988;2023-05-15T10:24:04;3.00;;;2.60;;
75993;SDS011;64680;53.800;9.988;2023-05-15T10:26:40;2.28;;;2.08;;
75993;SDS011;64680;53.800;9.988;2023-05-15T10:29:11;3.70;;;2.85;;
75993;SDS011;64680;53.800;9.988;2023-05-15T10:31:38;2.80;;;2.53;;
75993;SDS011;64680;53.800;9.988;2023-05-15T10:34:04;3.15;;;2.85;;
75993;SDS011;64680;53.800;9.988;2023-05-15T10:36:31;2.78;;;2.30;;
75993;SDS011;64680;53.800;9.988;2023-05-15T10:41:24;4.05;;;2.92;;
75993;SDS011;64680;53.800;9.988;2023-05-15T10:43:52;2.95;;;2.50;;
75993;SDS011;64680;53.800;9.988;2023-05-15T10:46:19;4.43;;;2.83;;
75993;SDS011;64680;53.800;9.988;2023-05-15T10:48:45;3.13;;;2.58;;
75993;SDS011;64680;53.800;9.988;2023-05-15T10:51:18;3.90;;;2.88;;
75993;SDS011;64680;53.800;9.988;2023-05-15T10:53:50;2.97;;;2.30;;
75993;SDS011;64680;53.800;9.988;2023-05-15T10:56:16;3.33;;;2.40;;
75993;SDS011;64680;53.800;9.988;2023-05-15T10:58:45;2.95;;;2.47;;
75993;SDS011;64680;53.800;9.988;2023-05-15T11:01:25;4.65;;;3.10;;
75993;SDS011;64680;53.800;9.988;2023-05-15T11:04:14;3.80;;;2.63;;
75993;SDS011;64680;53.800;9.988;2023-05-15T11:06:46;3.88;;;2.58;;
75993;SDS011;64680;53.800;9.988;2023-05-15T11:14:17;3.17;;;2.28;;
75993;SDS011;64680;53.800;9.988;2023-05-15T11:21:55;3.75;;;1.92;;
75993;SDS011;64680;53.800;9.988;2023-05-15T11:24:25;3.30;;;2.03;;
75993;SDS011;64680;53.800;9.988;2023-05-15T11:27:11;2.95;;;2.65;;
75993;SDS011;64680;53.800;9.988;2023-05-15T11:37:46;4.82;;;2.53;;
75993;SDS011;64680;53.800;9.988;2023-05-15T11:40:12;3.33;;;3.00;;
75993;SDS011;64680;53.800;9.988;2023-05-15T11:42:39;3.22;;;2.40;;
75993;SDS011;64680;53.800;9.988;2023-05-15T11:45:07;3.08;;;2.67;;
75993;SDS011;64680;53.800;9.988;2023-05-15T11:47:34;2.88;;;2.50;;
75993;SDS011;64680;53.800;9.988;2023-05-15T11:50:02;3.60;;;2.42;;
75993;SDS011;64680;53.800;9.988;2023-05-15T11:52:29;4.13;;;2.33;;
75993;SDS011;64680;53.800;9.988;2023-05-15T11:54:56;7.22;;;2.00;;
75993;SDS011;64680;53.800;9.988;2023-05-15T11:57:22;4.00;;;2.65;;
75993;SDS011;64680;53.800;9.988;2023-05-15T11:59:52;4.40;;;2.17;;
75993;SDS011;64680;53.800;9.988;2023-05-15T12:02:18;5.75;;;2.60;;
75993;SDS011;64680;53.800;9.988;2023-05-15T12:04:44;4.10;;;2.58;;
75993;SDS011;64680;53.800;9.988;2023-05-15T12:07:12;3.05;;;2.13;;
75993;SDS011;64680;53.800;9.988;2023-05-15T12:09:38;6.53;;;3.22;;
75993;SDS011;64680;53.800;9.988;2023-05-15T12:12:04;5.03;;;2.88;;
75993;SDS011;64680;53.800;9.988;2023-05-15T12:14:38;14.27;;;2.90;;
75993;SDS011;64680;53.800;9.988;2023-05-15T12:17:03;2.97;;;2.60;;
75993;SDS011;64680;53.800;9.988;2023-05-15T12:19:30;2.75;;;2.50;;
75993;SDS011;64680;53.800;9.988;2023-05-15T12:21:55;3.97;;;2.80;;
75993;SDS011;64680;53.800;9.988;2023-05-15T12:24:21;4.03;;;2.25;;
75993;SDS011;64680;53.800;9.988;2023-05-15T12:26:47;3.00;;;2.13;;
75993;SDS011;64680;53.800;9.988;2023-05-15T12:29:13;2.92;;;2.55;;
75993;SDS011;64680;53.800;9.988;2023-05-15T12:31:39;4.05;;;2.97;;
75993;SDS011;64680;53.800;9.988;2023-05-15T12:34:05;4.32;;;2.42;;
75993;SDS011;64680;53.800;9.988;2023-05-15T12:36:30;4.07;;;2.58;;
75993;SDS011;64680;53.800;9.988;2023-05-15T12:38:56;3.17;;;2.70;;
75993;SDS011;64680;53.800;9.988;2023-05-15T12:41:28;2.42;;;2.22;;
75993;SDS011;64680;53.800;9.988;2023-05-15T12:43:55;3.67;;;2.58;;
75993;SDS011;64680;53.800;9.988;2023-05-15T12:46:21;4.88;;;2.90;;
75993;SDS011;64680;53.800;9.988;2023-05-15T12:48:53;4.15;;;2.63;;
75993;SDS011;64680;53.800;9.988;2023-05-15T12:51:24;2.85;;;2.50;;
75993;SDS011;64680;53.800;9.988;2023-05-15T12:53:51;3.05;;;2.85;;
75993;SDS011;64680;53.800;9.988;2023-05-15T12:56:17;4.75;;;2.78;;
75993;SDS011;64680;53.800;9.988;2023-05-15T12:58:43;2.47;;;2.28;;
75993;SDS011;64680;53.800;9.988;2023-05-15T13:01:08;2.58;;;1.92;;
75993;SDS011;64680;53.800;9.988;2023-05-15T13:03:34;2.95;;;2.50;;
75993;SDS011;64680;53.800;9.988;2023-05-15T13:06:00;5.05;;;2.88;;
75993;SDS011;64680;53.800;9.988;2023-05-15T13:10:56;4.70;;;3.55;;
75993;SDS011;64680;53.800;9.988;2023-05-15T13:13:23;9.68;;;7.78;;
75993;SDS011;64680;53.800;9.988;2023-05-15T13:16:04;9.40;;;7.10;;
75993;SDS011;64680;53.800;9.988;2023-05-15T13:18:29;11.23;;;10.07;;
75993;SDS011;64680;53.800;9.988;2023-05-15T13:20:55;12.18;;;10.93;;
75993;SDS011;64680;53.800;9.988;2023-05-15T13:23:21;10.57;;;9.13;;
75993;SDS011;64680;53.800;9.988;2023-05-15T13:25:49;11.93;;;10.00;;
75993;SDS011;64680;53.800;9.988;2023-05-15T13:28:15;14.50;;;10.15;;
75993;SDS011;64680;53.800;9.988;2023-05-15T13:30:41;8.70;;;7.57;;
75993;SDS011;64680;53.800;9.988;2023-05-15T13:33:10;11.15;;;8.93;;
75993;SDS011;64680;53.800;9.988;2023-05-15T13:35:36;10.15;;;9.10;;
75993;SDS011;64680;53.800;9.988;2023-05-15T13:38:02;9.07;;;8.13;;
75993;SDS011;64680;53.800;9.988;2023-05-15T13:40:31;12.23;;;9.63;;
75993;SDS011;64680;53.800;9.988;2023-05-15T13:42:59;9.60;;;8.20;;
75993;SDS011;64680;53.800;9.988;2023-05-15T13:45:25;9.45;;;7.70;;
75993;SDS011;64680;53.800;9.988;2023-05-15T13:47:51;8.95;;;7.78;;
75993;SDS011;64680;53.800;9.988;2023-05-15T13:50:16;9.10;;;7.63;;
75993;SDS011;64680;53.800;9.988;2023-05-15T13:52:43;8.48;;;6.68;;
75993;SDS011;64680;53.800;9.988;2023-05-15T13:55:10;9.57;;;7.05;;
75993;SDS011;64680;53.800;9.988;2023-05-15T13:57:36;8.60;;;7.15;;
75993;SDS011;64680;53.800;9.988;2023-05-15T14:00:06;11.02;;;6.72;;
75993;SDS011;64680;53.800;9.988;2023-05-15T14:02:34;10.43;;;8.30;;
75993;SDS011;64680;53.800;9.988;2023-05-15T14:05:00;11.25;;;9.50;;
75993;SDS011;64680;53.800;9.988;2023-05-15T14:07:25;11.23;;;9.20;;
75993;SDS011;64680;53.800;9.988;2023-05-15T14:09:51;11.63;;;9.48;;
75993;SDS011;64680;53.800;9.988;2023-05-15T14:12:16;14.02;;;10.23;;
75993;SDS011;64680;53.800;9.988;2023-05-15T14:14:45;13.88;;;8.95;;
75993;SDS011;64680;53.800;9.988;2023-05-15T14:17:11;7.32;;;6.18;;
75993;SDS011;64680;53.800;9.988;2023-05-15T14:19:37;8.27;;;7.22;;
75993;SDS011;64680;53.800;9.988;2023-05-15T14:22:03;6.82;;;5.32;;
75993;SDS011;64680;53.800;9.988;2023-05-15T14:24:28;8.75;;;6.75;;
75993;SDS011;64680;53.800;9.988;2023-05-15T14:26:54;5.85;;;4.78;;
75993;SDS011;64680;53.800;9.988;2023-05-15T14:29:20;6.47;;;4.80;;
75993;SDS011;64680;53.800;9.988;2023-05-15T14:31:45;6.13;;;5.30;;
75993;SDS011;64680;53.800;9.988;2023-05-15T14:34:11;6.60;;;3.90;;
75993;SDS011;64680;53.800;9.988;2023-05-15T14:36:36;5.70;;;4.97;;
75993;SDS011;64680;53.800;9.988;2023-05-15T14:39:02;6.10;;;5.28;;
75993;SDS011;64680;53.800;9.988;2023-05-15T14:41:28;6.45;;;5.03;;
75993;SDS011;64680;53.800;9.988;2023-05-15T14:43:54;7.95;;;4.97;;
75993;SDS011;64680;53.800;9.988;2023-05-15T14:46:19;5.35;;;4.85;;
75993;SDS011;64680;53.800;9.988;2023-05-15T14:48:45;4.35;;;3.95;;
75993;SDS011;64680;53.800;9.988;2023-05-15T14:51:10;5.43;;;4.15;;
75993;SDS011;64680;53.800;9.988;2023-05-15T14:53:36;5.45;;;4.22;;
75993;SDS011;64680;53.800;9.988;2023-05-15T14:56:01;4.63;;;4.13;;
75993;SDS011;64680;53.800;9.988;2023-05-15T14:58:27;5.28;;;4.07;;
75993;SDS011;64680;53.800;9.988;2023-05-15T15:00:54;4.40;;;4.00;;
75993;SDS011;64680;53.800;9.988;2023-05-15T15:03:20;4.95;;;3.92;;
75993;SDS011;64680;53.800;9.988;2023-05-15T15:05:46;5.15;;;3.28;;
75993;SDS011;64680;53.800;9.988;2023-05-15T15:08:12;3.42;;;3.13;;
75993;SDS011;64680;53.800;9.988;2023-05-15T15:10:38;3.20;;;2.90;;
75993;SDS011;64680;53.800;9.988;2023-05-15T15:13:05;3.20;;;2.95;;
75993;SDS011;64680;53.800;9.988;2023-05-15T15:15:32;5.93;;;3.20;;
75993;SDS011;64680;53.800;9.988;2023-05-15T15:17:58;4.45;;;2.75;;
75993;SDS011;64680;53.800;9.988;2023-05-15T15:20:25;4.95;;;2.72;;
75993;SDS011;64680;53.800;9.988;2023-05-15T15:22:51;3.28;;;2.97;;
75993;SDS011;64680;53.800;9.988;2023-05-15T15:25:17;2.92;;;2.65;;
75993;SDS011;64680;53.800;9.988;2023-05-15T15:27:43;3.85;;;2.58;;